Time;durP1;ratioP1;P1;durP2;ratioP2;P2;SDS_P1;SDS_P2;PMS_P1;PMS_P2;Temp;Humidity;BMP_temperature;BMP_pressure;BME280_temperature;BME280_humidity;BME280_pressure;Samples;Min_cycle;Max_cycle;Signal;HPM_P1;HPM_P2
2023/10/19 00:01:40;;;;;;;27.93;18.87;;;;;;;;;;5028866;28;20069;-58
2023/10/19 00:04:07;;;;;;;33.50;22.70;;;;;;;;;;5029877;28;20029;-57
2023/10/19 00:06:32;;;;;;;29.95;19.50;;;;;;;;;;5028640;28;20143;-58
2023/10/19 00:08:59;;;;;;;29.35;18.88;;;;;;;;;;5029981;28;20029;-57
2023/10/19 00:11:26;;;;;;;29.77;19.55;;;;;;;;;;5028377;28;20124;-57
2023/10/19 00:13:54;;;;;;;26.10;19.25;;;;;;;;;;5033964;28;20079;-57
2023/10/19 00:16:22;;;;;;;31.20;21.87;;;;;;;;;;5033094;28;20111;-58
2023/10/19 00:18:48;;;;;;;;;;;;;;;;;;5034138;28;20514;-57
2023/10/19 00:21:20;;;;;;;28.08;20.58;;;;;;;;;;5032922;28;19910;-57
2023/10/19 00:23:47;;;;;;;29.05;19.45;;;;;;;;;;5034153;28;20045;-58
2023/10/19 00:26:19;;;;;;;27.45;21.35;;;;;;;;;;5031966;28;20087;-58
2023/10/19 00:28:45;;;;;;;29.02;21.55;;;;;;;;;;5034277;28;20027;-58
2023/10/19 00:31:11;;;;;;;27.42;20.35;;;;;;;;;;5031985;28;20095;-58
2023/10/19 00:33:39;;;;;;;25.90;20.95;;;;;;;;;;5033370;28;20021;-58
2023/10/19 00:36:08;;;;;;;30.73;21.55;;;;;;;;;;5032539;28;20037;-58
2023/10/19 00:41:00;;;;;;;32.60;22.80;;;;;;;;;;5031881;28;19909;-58
2023/10/19 00:43:26;;;;;;;32.95;23.98;;;;;;;;;;5033840;28;20051;-58
2023/10/19 00:45:52;;;;;;;36.00;23.08;;;;;;;;;;5031800;28;20061;-58
2023/10/19 00:48:17;;;;;;;37.47;19.95;;;;;;;;;;5033190;28;20029;-57
2023/10/19 00:50:43;;;;;;;33.35;23.90;;;;;;;;;;5032151;28;20037;-58
2023/10/19 00:53:08;;;;;;;27.65;19.88;;;;;;;;;;5033843;28;20044;-57
2023/10/19 00:55:34;;;;;;;32.53;22.95;;;;;;;;;;5032038;28;20401;-57
2023/10/19 00:58:03;;;;;;;32.65;22.20;;;;;;;;;;5032767;28;20745;-58
2023/10/19 01:00:34;;;;;;;32.85;21.05;;;;;;;;;;5032171;28;20029;-58
2023/10/19 01:03:00;;;;;;;30.40;19.92;;;;;;;;;;5033546;28;20025;-58
2023/10/19 01:05:32;;;;;;;32.42;21.33;;;;;;;;;;5031334;28;20623;-57
2023/10/19 01:07:57;;;;;;;31.98;20.75;;;;;;;;;;5027978;28;20022;-58
2023/10/19 01:10:28;;;;;;;39.00;23.83;;;;;;;;;;5032164;28;20558;-57
2023/10/19 01:12:53;;;;;;;32.97;23.33;;;;;;;;;;5032627;28;20100;-57
2023/10/19 01:17:56;;;;;;;37.05;23.02;;;;;;;;;;5032603;28;20430;-58
2023/10/19 01:22:49;;;;;;;29.58;23.55;;;;;;;;;;5032952;28;20030;-58
2023/10/19 01:25:16;;;;;;;29.63;22.50;;;;;;;;;;5030989;28;20036;-57
2023/10/19 01:27:42;;;;;;;31.35;21.95;;;;;;;;;;5032965;28;20131;-57
2023/10/19 01:30:09;;;;;;;34.03;20.95;;;;;;;;;;5031101;28;20128;-58
2023/10/19 01:32:34;;;;;;;28.80;21.45;;;;;;;;;;5032472;28;20047;-57
2023/10/19 01:34:59;;;;;;;33.92;21.80;;;;;;;;;;5030321;28;20103;-57
2023/10/19 01:37:25;;;;;;;30.37;19.37;;;;;;;;;;5032911;28;20102;-57
2023/10/19 01:39:50;;;;;;;31.60;21.67;;;;;;;;;;5030962;28;20053;-57
2023/10/19 01:42:17;;;;;;;27.23;20.65;;;;;;;;;;5032754;28;20029;-57
2023/10/19 01:44:42;;;;;;;29.48;20.20;;;;;;;;;;5030941;28;20405;-58
2023/10/19 01:47:07;;;;;;;33.47;22.15;;;;;;;;;;5032415;28;20018;-58
2023/10/19 01:49:32;;;;;;;36.47;23.58;;;;;;;;;;5032243;28;20033;-57
2023/10/19 01:51:57;;;;;;;29.90;21.50;;;;;;;;;;5030643;28;20049;-58
2023/10/19 01:54:24;;;;;;;30.50;21.37;;;;;;;;;;5032783;28;20414;-57
2023/10/19 01:56:56;;;;;;;33.45;22.05;;;;;;;;;;5030147;28;20476;-57
2023/10/19 01:59:27;;;;;;;29.00;21.50;;;;;;;;;;5032046;28;20100;-57
2023/10/19 02:01:52;;;;;;;31.20;22.80;;;;;;;;;;5030236;28;20459;-57
2023/10/19 02:04:17;;;;;;;31.05;21.75;;;;;;;;;;5032001;28;20105;-58
2023/10/19 02:06:46;;;;;;;29.92;21.08;;;;;;;;;;5031020;28;20029;-57
2023/10/19 02:09:21;;;;;;;32.17;23.33;;;;;;;;;;5032197;28;20021;-57
2023/10/19 02:11:47;;;;;;;30.55;21.27;;;;;;;;;;5029987;28;20037;-58
2023/10/19 02:14:15;;;;;;;39.78;22.73;;;;;;;;;;5031836;28;20025;-57
2023/10/19 02:16:46;;;;;;;29.63;22.35;;;;;;;;;;5030668;28;20048;-58
2023/10/19 02:19:11;;;;;;;33.13;23.08;;;;;;;;;;5031175;28;20032;-57
2023/10/19 02:21:40;;;;;;;33.20;23.43;;;;;;;;;;5030655;28;20034;-57
2023/10/19 02:24:09;;;;;;;35.28;26.40;;;;;;;;;;5031920;28;20033;-58
2023/10/19 02:26:35;;;;;;;36.30;25.23;;;;;;;;;;5029950;28;20512;-58
2023/10/19 02:29:01;;;;;;;30.30;22.10;;;;;;;;;;5031621;28;20037;-57
2023/10/19 02:31:26;;;;;;;41.90;26.63;;;;;;;;;;5030307;28;20038;-58
2023/10/19 02:33:52;;;;;;;37.25;24.23;;;;;;;;;;5029435;28;20120;-58
2023/10/19 02:36:19;;;;;;;38.80;28.75;;;;;;;;;;5029388;28;20048;-58
2023/10/19 02:38:48;;;;;;;37.85;27.90;;;;;;;;;;5031059;28;20477;-58
2023/10/19 02:41:13;;;;;;;46.25;29.90;;;;;;;;;;5029938;28;20539;-58
2023/10/19 02:43:40;;;;;;;37.45;25.92;;;;;;;;;;5031511;28;20140;-57
2023/10/19 02:46:05;;;;;;;36.42;24.83;;;;;;;;;;5029592;28;20048;-57
2023/10/19 02:48:31;;;;;;;39.47;27.08;;;;;;;;;;5031136;28;20468;-57
2023/10/19 02:50:58;;;;;;;47.08;28.70;;;;;;;;;;5029641;28;20061;-57
2023/10/19 02:53:24;;;;;;;39.53;27.10;;;;;;;;;;5031792;28;20079;-58
2023/10/19 02:55:51;;;;;;;40.30;26.42;;;;;;;;;;5028064;28;20041;-58
2023/10/19 02:58:16;;;;;;;41.00;30.42;;;;;;;;;;5031479;28;20104;-58
2023/10/19 03:00:41;;;;;;;45.77;31.80;;;;;;;;;;5029444;28;20120;-58
2023/10/19 03:03:06;;;;;;;45.10;31.98;;;;;;;;;;5030879;28;20021;-60
2023/10/19 03:05:34;;;;;;;46.50;30.92;;;;;;;;;;5029668;28;20061;-58
2023/10/19 03:07:59;;;;;;;43.72;30.85;;;;;;;;;;5030850;28;20021;-58
2023/10/19 03:10:34;;;;;;;46.70;31.35;;;;;;;;;;5029178;28;20044;-58
2023/10/19 03:12:59;;;;;;;43.58;27.98;;;;;;;;;;5031192;28;20376;-57
2023/10/19 03:15:24;;;;;;;51.10;33.95;;;;;;;;;;5029716;28;20040;-58
2023/10/19 03:17:49;;;;;;;47.58;32.38;;;;;;;;;;5030224;28;20013;-58
2023/10/19 03:20:17;;;;;;;46.33;32.00;;;;;;;;;;5029499;28;20033;-58
2023/10/19 03:22:43;;;;;;;49.72;33.65;;;;;;;;;;5030983;28;20477;-58
2023/10/19 03:26:17;;;;;;;43.00;30.83;;;;;;;;;;5028794;28;20041;-58
2023/10/19 03:28:08;;;;;;;52.42;34.78;;;;;;;;;;5030166;28;20515;-59
2023/10/19 03:30:39;;;;;;;52.15;34.60;;;;;;;;;;5029264;28;20056;-58
2023/10/19 03:33:05;;;;;;;49.85;33.90;;;;;;;;;;5030135;28;20512;-58
2023/10/19 03:35:30;;;;;;;56.03;35.00;;;;;;;;;;5028580;28;20136;-57
2023/10/19 03:38:03;;;;;;;42.80;31.60;;;;;;;;;;5030566;28;20092;-57
2023/10/19 03:40:32;;;;;;;59.60;33.72;;;;;;;;;;5029155;28;20037;-58
2023/10/19 03:42:58;;;;;;;52.38;35.20;;;;;;;;;;5030584;28;20018;-58
2023/10/19 03:45:24;;;;;;;49.90;32.90;;;;;;;;;;5028924;28;20090;-58
2023/10/19 03:47:50;;;;;;;46.80;33.55;;;;;;;;;;5029933;28;20025;-57
2023/10/19 03:50:20;;;;;;;57.88;33.80;;;;;;;;;;5029014;28;20037;-58
2023/10/19 03:52:45;;;;;;;57.67;33.88;;;;;;;;;;5031194;28;20021;-58
2023/10/19 03:55:19;;;;;;;52.73;35.93;;;;;;;;;;5028394;28;20072;-58
2023/10/19 03:57:50;;;;;;;60.15;35.03;;;;;;;;;;5030873;28;20021;-58
2023/10/19 04:00:19;;;;;;;54.83;33.83;;;;;;;;;;5029032;28;20033;-58
2023/10/19 04:02:45;;;;;;;59.03;33.58;;;;;;;;;;5029998;28;20477;-58
2023/10/19 04:05:14;;;;;;;54.13;34.30;;;;;;;;;;5028558;28;20185;-58
2023/10/19 04:07:41;;;;;;;56.20;36.10;;;;;;;;;;5030817;28;20037;-58
2023/10/19 04:12:31;;;;;;;57.40;32.15;;;;;;;;;;5030161;28;20116;-57
2023/10/19 04:14:57;;;;;;;50.83;33.53;;;;;;;;;;5013985;28;20073;-57
2023/10/19 04:17:23;;;;;;;52.95;33.13;;;;;;;;;;5030083;28;20448;-57
2023/10/19 04:19:49;;;;;;;53.83;32.45;;;;;;;;;;5028403;28;20021;-57
2023/10/19 04:22:22;;;;;;;46.33;32.60;;;;;;;;;;5030225;28;20013;-57
2023/10/19 04:24:47;;;;;;;48.22;31.67;;;;;;;;;;5027625;28;20040;-57
2023/10/19 04:27:12;;;;;;;48.83;31.23;;;;;;;;;;5029277;28;20017;-57
2023/10/19 04:29:39;;;;;;;42.58;28.27;;;;;;;;;;5028547;28;20064;-57
2023/10/19 04:32:06;;;;;;;47.65;30.08;;;;;;;;;;5029859;28;20022;-58
2023/10/19 04:34:31;;;;;;;53.80;31.15;;;;;;;;;;5030154;28;20041;-57
2023/10/19 04:36:57;;;;;;;50.63;30.17;;;;;;;;;;5026893;28;20038;-57
2023/10/19 04:39:22;;;;;;;44.97;29.73;;;;;;;;;;5029358;28;20031;-56
2023/10/19 04:41:49;;;;;;;47.73;28.63;;;;;;;;;;5028367;28;20036;-56
2023/10/19 04:44:15;;;;;;;47.30;29.90;;;;;;;;;;5030204;28;20028;-56
2023/10/19 04:46:41;;;;;;;51.47;30.92;;;;;;;;;;5028637;28;20488;-56
2023/10/19 04:49:06;;;;;;;50.33;30.08;;;;;;;;;;5029987;28;20508;-56
2023/10/19 04:51:31;;;;;;;49.40;27.55;;;;;;;;;;5028625;28;20497;-56
2023/10/19 04:53:56;;;;;;;56.30;31.25;;;;;;;;;;5029461;28;20025;-56
2023/10/19 04:56:21;;;;;;;60.90;31.27;;;;;;;;;;5028675;28;20053;-56
2023/10/19 04:58:47;;;;;;;58.27;31.17;;;;;;;;;;5030978;28;20377;-56
2023/10/19 05:01:12;;;;;;;54.28;32.53;;;;;;;;;;5029409;28;20506;-56
2023/10/19 05:03:37;;;;;;;54.30;32.10;;;;;;;;;;5022311;28;20072;-56
2023/10/19 05:06:02;;;;;;;47.30;30.63;;;;;;;;;;5018854;28;20033;-56
2023/10/19 05:08:29;;;;;;;51.88;30.02;;;;;;;;;;5022614;28;20017;-56
2023/10/19 05:10:54;;;;;;;56.60;32.88;;;;;;;;;;5018967;28;20033;-56
2023/10/19 05:13:20;;;;;;;54.63;31.35;;;;;;;;;;5020881;28;20088;-56
2023/10/19 05:15:45;;;;;;;53.78;30.38;;;;;;;;;;5019366;28;20043;-56
2023/10/19 05:18:10;;;;;;;56.13;31.65;;;;;;;;;;5022279;28;20196;-56
2023/10/19 05:20:40;;;;;;;49.53;29.55;;;;;;;;;;5022284;28;20037;-56
2023/10/19 05:23:05;;;;;;;46.05;28.60;;;;;;;;;;5020521;28;20105;-56
2023/10/19 05:25:30;;;;;;;50.38;28.83;;;;;;;;;;5019373;28;20545;-56
2023/10/19 05:27:55;;;;;;;51.20;29.30;;;;;;;;;;5020379;28;20020;-56
2023/10/19 05:30:22;;;;;;;43.23;26.80;;;;;;;;;;5025339;28;20479;-56
2023/10/19 05:32:49;;;;;;;42.22;25.48;;;;;;;;;;5027470;28;20463;-56
2023/10/19 05:35:22;;;;;;;44.00;29.67;;;;;;;;;;5030957;28;20108;-56
2023/10/19 05:37:49;;;;;;;75.68;27.10;;;;;;;;;;5031836;28;20465;-56
2023/10/19 05:40:14;;;;;;;38.75;26.25;;;;;;;;;;5030928;28;20049;-56
2023/10/19 05:42:40;;;;;;;46.50;27.73;;;;;;;;;;5032231;28;20100;-56
2023/10/19 05:45:05;;;;;;;41.88;27.55;;;;;;;;;;5025738;28;20037;-56
2023/10/19 05:47:31;;;;;;;43.53;27.02;;;;;;;;;;5032073;28;20029;-56
2023/10/19 05:49:56;;;;;;;44.30;27.05;;;;;;;;;;5030695;28;20033;-56
2023/10/19 05:52:22;;;;;;;42.93;26.53;;;;;;;;;;5032084;28;20024;-56
2023/10/19 05:54:49;;;;;;;49.15;25.67;;;;;;;;;;5030803;28;20485;-56
2023/10/19 05:57:14;;;;;;;37.65;26.00;;;;;;;;;;5032717;28;20084;-56
2023/10/19 05:59:40;;;;;;;43.00;25.67;;;;;;;;;;5030406;28;20128;-56
2023/10/19 06:02:07;;;;;;;36.30;23.23;;;;;;;;;;5031645;28;20017;-56
2023/10/19 06:04:32;;;;;;;36.15;24.88;;;;;;;;;;5032591;28;20036;-56
2023/10/19 06:06:57;;;;;;;35.90;25.08;;;;;;;;;;5030425;28;20117;-56
2023/10/19 06:09:29;;;;;;;39.63;23.77;;;;;;;;;;5031199;28;20105;-56
2023/10/19 06:11:54;;;;;;;35.05;24.77;;;;;;;;;;5029413;28;20034;-56
2023/10/19 06:14:19;;;;;;;41.40;25.85;;;;;;;;;;5030343;28;20103;-56
2023/10/19 06:16:44;;;;;;;42.55;25.75;;;;;;;;;;5029408;28;20044;-56
2023/10/19 06:19:09;;;;;;;39.25;22.65;;;;;;;;;;5030977;28;20026;-56
2023/10/19 06:21:35;;;;;;;39.15;24.02;;;;;;;;;;5029055;28;20029;-56
2023/10/19 06:24:00;;;;;;;37.58;22.95;;;;;;;;;;5031411;28;20108;-56
2023/10/19 06:26:25;;;;;;;40.58;25.52;;;;;;;;;;5029612;28;20040;-56
2023/10/19 06:28:50;;;;;;;38.77;21.73;;;;;;;;;;5030759;28;20018;-56
2023/10/19 06:31:17;;;;;;;42.05;24.15;;;;;;;;;;5030552;28;20495;-56
2023/10/19 06:33:42;;;;;;;32.25;22.73;;;;;;;;;;5031674;28;20052;-56
2023/10/19 06:36:07;;;;;;;30.90;20.63;;;;;;;;;;5029960;28;20373;-56
2023/10/19 06:38:32;;;;;;;37.55;19.60;;;;;;;;;;5031482;28;20022;-56
2023/10/19 06:40:58;;;;;;;31.57;21.93;;;;;;;;;;5027826;28;20072;-56
2023/10/19 06:43:28;;;;;;;32.22;18.77;;;;;;;;;;5030811;28;20110;-56
2023/10/19 06:45:54;;;;;;;33.75;20.85;;;;;;;;;;5028841;28;20038;-56
2023/10/19 06:48:20;;;;;;;27.20;19.13;;;;;;;;;;5031534;28;20111;-56
2023/10/19 06:50:45;;;;;;;28.52;18.85;;;;;;;;;;5029959;28;20116;-56
2023/10/19 06:53:11;;;;;;;33.53;18.37;;;;;;;;;;5030937;28;20025;-56
2023/10/19 06:55:36;;;;;;;29.90;20.00;;;;;;;;;;5028614;28;20480;-56
2023/10/19 06:58:02;;;;;;;30.23;19.17;;;;;;;;;;5031162;28;20049;-57
2023/10/19 07:00:27;;;;;;;30.45;18.95;;;;;;;;;;5029691;28;20384;-56
2023/10/19 07:02:54;;;;;;;27.43;18.20;;;;;;;;;;5026480;28;20021;-56
2023/10/19 07:05:25;;;;;;;32.40;17.20;;;;;;;;;;5029533;28;21014;-56
2023/10/19 07:07:52;;;;;;;26.42;17.77;;;;;;;;;;5030865;28;20025;-56
2023/10/19 07:10:17;;;;;;;25.17;18.80;;;;;;;;;;5029975;28;20037;-56
2023/10/19 07:12:46;;;;;;;28.20;17.83;;;;;;;;;;5029828;28;20021;-56
2023/10/19 07:15:14;;;;;;;;;;;;;;;;;;5029487;28;20060;-56
2023/10/19 07:17:42;;;;;;;27.48;16.42;;;;;;;;;;5031101;28;19959;-56
2023/10/19 07:20:09;;;;;;;27.95;17.10;;;;;;;;;;5029414;28;20509;-56
2023/10/19 07:22:38;;;;;;;25.42;15.23;;;;;;;;;;5030487;28;20059;-56
2023/10/19 07:25:05;;;;;;;;;;;;;;;;;;5029708;28;20029;-56
2023/10/19 07:27:30;;;;;;;24.20;14.75;;;;;;;;;;5030897;28;20315;-56
2023/10/19 07:29:57;;;;;;;34.13;16.27;;;;;;;;;;5028932;28;20047;-59
2023/10/19 07:32:22;;;;;;;25.30;14.13;;;;;;;;;;5031036;28;20028;-56
2023/10/19 07:34:48;;;;;;;20.30;13.40;;;;;;;;;;5028867;28;20124;-56
2023/10/19 07:37:15;;;;;;;22.80;15.20;;;;;;;;;;5030755;28;20029;-56
2023/10/19 07:39:44;;;;;;;18.42;12.73;;;;;;;;;;5029155;28;20559;-55
2023/10/19 07:42:11;;;;;;;18.77;12.45;;;;;;;;;;5030674;28;20471;-55
2023/10/19 07:44:36;;;;;;;20.25;12.63;;;;;;;;;;5030531;28;20021;-55
2023/10/19 07:47:01;;;;;;;15.60;12.02;;;;;;;;;;5028949;28;20044;-55
2023/10/19 07:49:26;;;;;;;17.25;13.15;;;;;;;;;;5030855;28;20032;-55
2023/10/19 07:51:52;;;;;;;17.53;13.20;;;;;;;;;;5028632;28;20048;-56
2023/10/19 07:54:17;;;;;;;14.15;11.27;;;;;;;;;;5030642;28;20420;-56
2023/10/19 07:56:43;;;;;;;16.65;10.68;;;;;;;;;;5029009;28;20033;-56
2023/10/19 07:59:08;;;;;;;17.60;11.60;;;;;;;;;;5030338;28;20020;-56
2023/10/19 08:01:34;;;;;;;21.77;13.87;;;;;;;;;;5029116;28;20124;-56
2023/10/19 08:03:59;;;;;;;17.83;11.77;;;;;;;;;;5030505;28;20503;-56
2023/10/19 08:06:26;;;;;;;14.82;10.70;;;;;;;;;;5028585;28;20480;-56
2023/10/19 08:08:51;;;;;;;24.50;13.88;;;;;;;;;;5029906;28;20060;-56
2023/10/19 08:11:16;;;;;;;18.27;11.63;;;;;;;;;;5029187;28;20053;-56
2023/10/19 08:13:41;;;;;;;17.93;10.63;;;;;;;;;;5030188;28;20436;-56
2023/10/19 08:16:07;;;;;;;24.77;12.23;;;;;;;;;;5028770;28;20472;-56
2023/10/19 08:18:34;;;;;;;20.90;10.27;;;;;;;;;;5030410;28;20049;-56
2023/10/19 08:21:00;;;;;;;17.90;9.90;;;;;;;;;;5028552;28;20041;-56
2023/10/19 08:23:27;;;;;;;15.98;10.25;;;;;;;;;;5030628;28;20028;-56
2023/10/19 08:25:52;;;;;;;11.40;9.20;;;;;;;;;;5028719;28;20033;-56
2023/10/19 08:28:18;;;;;;;15.82;10.60;;;;;;;;;;5029694;28;20344;-56
2023/10/19 08:30:45;;;;;;;11.82;8.48;;;;;;;;;;5028962;28;20061;-56
2023/10/19 08:33:11;;;;;;;15.45;8.80;;;;;;;;;;5030315;28;20033;-56
2023/10/19 08:35:36;;;;;;;10.40;8.57;;;;;;;;;;5031626;28;20046;-56
2023/10/19 08:38:04;;;;;;;13.63;9.50;;;;;;;;;;5033808;28;20017;-56
2023/10/19 08:40:29;;;;;;;16.30;8.80;;;;;;;;;;5032752;28;20026;-56
2023/10/19 08:42:55;;;;;;;21.60;8.30;;;;;;;;;;5033431;28;20030;-56
2023/10/19 08:45:21;;;;;;;14.60;7.18;;;;;;;;;;5032553;28;20041;-56
2023/10/19 08:47:56;;;;;;;12.80;7.82;;;;;;;;;;5033726;28;20045;-55
2023/10/19 08:50:23;;;;;;;12.02;8.32;;;;;;;;;;5031981;28;20034;-56
2023/10/19 08:52:50;;;;;;;8.85;6.65;;;;;;;;;;5033555;28;20734;-56
2023/10/19 08:55:15;;;;;;;13.20;8.02;;;;;;;;;;5032396;28;20378;-56
2023/10/19 08:57:41;;;;;;;16.73;8.33;;;;;;;;;;5033328;28;20024;-56
2023/10/19 09:00:06;;;;;;;13.40;6.88;;;;;;;;;;5031988;28;20135;-56
2023/10/19 09:02:33;;;;;;;15.00;7.13;;;;;;;;;;5030841;28;20052;-56
2023/10/19 09:04:59;;;;;;;19.33;8.18;;;;;;;;;;5031070;28;20033;-56
2023/10/19 09:07:30;;;;;;;29.40;8.30;;;;;;;;;;5032091;28;20014;-56
2023/10/19 09:09:55;;;;;;;11.93;7.07;;;;;;;;;;5032017;28;20036;-56
2023/10/19 09:12:20;;;;;;;12.63;7.40;;;;;;;;;;5031924;28;20598;-56
2023/10/19 09:14:46;;;;;;;9.80;7.57;;;;;;;;;;5031929;28;20021;-56
2023/10/19 09:17:13;;;;;;;10.60;6.43;;;;;;;;;;5033422;28;20100;-56
2023/10/19 09:19:39;;;;;;;15.80;7.22;;;;;;;;;;5031613;28;20395;-55
2023/10/19 09:22:18;;;;;;;10.25;6.28;;;;;;;;;;5033211;28;20014;-56
2023/10/19 09:24:44;;;;;;;16.38;8.05;;;;;;;;;;5031868;28;20052;-56
2023/10/19 09:27:10;;;;;;;13.00;5.60;;;;;;;;;;5032890;28;20113;-56
2023/10/19 09:29:36;;;;;;;13.13;5.05;;;;;;;;;;5033292;28;20105;-56
2023/10/19 09:32:03;;;;;;;7.70;5.13;;;;;;;;;;5031434;28;20033;-56
2023/10/19 09:34:32;;;;;;;11.55;5.32;;;;;;;;;;5032740;28;20103;-56
2023/10/19 09:37:00;;;;;;;9.60;5.63;;;;;;;;;;5031334;28;20038;-56
2023/10/19 09:39:25;;;;;;;8.45;5.70;;;;;;;;;;5033097;28;20126;-56
2023/10/19 09:41:52;;;;;;;17.85;6.40;;;;;;;;;;5030946;28;20532;-56
2023/10/19 09:44:22;;;;;;;18.75;7.97;;;;;;;;;;5032593;28;20063;-56
2023/10/19 09:46:48;;;;;;;12.98;6.40;;;;;;;;;;5030994;28;20492;-56
2023/10/19 09:49:13;;;;;;;9.48;6.20;;;;;;;;;;5032367;28;20096;-56
2023/10/19 09:51:39;;;;;;;6.40;4.33;;;;;;;;;;5031365;28;20033;-56
2023/10/19 09:54:19;;;;;;;6.88;5.13;;;;;;;;;;5032738;28;20021;-56
2023/10/19 09:56:48;;;;;;;9.48;4.80;;;;;;;;;;5030820;28;20505;-56
2023/10/19 09:59:23;;;;;;;10.75;5.80;;;;;;;;;;5032632;28;20044;-56
2023/10/19 10:02:05;;;;;;;9.63;5.47;;;;;;;;;;5030780;28;20527;-56
2023/10/19 10:04:30;;;;;;;8.32;4.85;;;;;;;;;;5032111;28;20053;-56
2023/10/19 10:06:55;;;;;;;10.65;5.47;;;;;;;;;;5030720;28;20429;-56
2023/10/19 10:09:24;;;;;;;11.40;6.30;;;;;;;;;;5032639;28;20116;-56
2023/10/19 10:11:52;;;;;;;8.75;4.05;;;;;;;;;;5029491;28;20506;-56
2023/10/19 10:14:24;;;;;;;9.90;4.78;;;;;;;;;;5032204;28;20103;-56
2023/10/19 10:16:59;;;;;;;11.82;4.35;;;;;;;;;;5029714;28;20046;-56
2023/10/19 10:19:24;;;;;;;7.00;4.30;;;;;;;;;;5031683;28;20014;-56
2023/10/19 10:22:11;;;;;;;11.38;5.25;;;;;;;;;;5030644;28;20125;-56
2023/10/19 10:24:39;;;;;;;10.85;5.72;;;;;;;;;;5031753;28;20037;-56
2023/10/19 10:27:04;;;;;;;12.02;4.93;;;;;;;;;;5029690;28;20103;-56
2023/10/19 10:29:31;;;;;;;5.97;3.93;;;;;;;;;;5031063;28;20025;-56
2023/10/19 10:31:58;;;;;;;13.65;4.03;;;;;;;;;;5029291;28;20514;-56
2023/10/19 10:34:45;;;;;;;10.25;4.13;;;;;;;;;;5030143;28;20161;-56
2023/10/19 10:37:10;;;;;;;18.23;4.90;;;;;;;;;;5029088;28;20041;-56
2023/10/19 10:39:37;;;;;;;8.38;5.03;;;;;;;;;;5030820;28;20040;-56
2023/10/19 10:42:04;;;;;;;12.57;4.35;;;;;;;;;;5027575;28;20053;-56
2023/10/19 10:44:39;;;;;;;16.10;6.13;;;;;;;;;;5030335;28;20013;-56
2023/10/19 10:47:08;;;;;;;12.05;3.95;;;;;;;;;;5009160;28;20501;-56
2023/10/19 10:49:35;;;;;;;12.35;3.90;;;;;;;;;;5011548;28;20050;-56
2023/10/19 10:52:00;;;;;;;11.00;2.90;;;;;;;;;;5029782;28;20048;-56
2023/10/19 10:54:25;;;;;;;5.00;3.97;;;;;;;;;;5031617;28;20033;-56
2023/10/19 10:56:50;;;;;;;5.40;2.87;;;;;;;;;;5028616;28;20083;-56
2023/10/19 10:59:16;;;;;;;12.23;5.53;;;;;;;;;;5031370;28;20044;-56
2023/10/19 11:01:42;;;;;;;12.02;3.80;;;;;;;;;;5029809;28;20824;-56
2023/10/19 11:04:11;;;;;;;10.73;3.08;;;;;;;;;;5030848;28;20104;-56
2023/10/19 11:06:46;;;;;;;5.68;2.83;;;;;;;;;;5029597;28;20037;-56
2023/10/19 11:09:12;;;;;;;7.45;3.92;;;;;;;;;;5031172;28;20021;-56
2023/10/19 11:11:38;;;;;;;9.03;4.03;;;;;;;;;;5027970;28;20048;-57
2023/10/19 11:14:11;;;;;;;9.73;3.97;;;;;;;;;;5030855;28;20441;-56
2023/10/19 11:16:37;;;;;;;14.18;4.68;;;;;;;;;;5029790;28;20443;-56
2023/10/19 11:19:02;;;;;;;5.55;3.25;;;;;;;;;;5030642;28;20071;-56
2023/10/19 11:21:28;;;;;;;4.25;2.88;;;;;;;;;;5029771;28;20035;-56
2023/10/19 11:23:53;;;;;;;7.68;2.17;;;;;;;;;;5030723;28;20492;-56
2023/10/19 11:26:22;;;;;;;7.60;2.27;;;;;;;;;;5029119;28;20068;-56
2023/10/19 11:28:56;;;;;;;7.93;4.22;;;;;;;;;;5030576;28;20868;-56
2023/10/19 11:31:23;;;;;;;5.00;3.70;;;;;;;;;;5029565;28;20033;-56
2023/10/19 11:33:48;;;;;;;7.43;3.20;;;;;;;;;;5030110;28;20049;-56
2023/10/19 11:36:14;;;;;;;6.82;2.75;;;;;;;;;;5029412;28;20044;-56
2023/10/19 11:38:40;;;;;;;7.85;3.17;;;;;;;;;;5031230;28;20438;-56
2023/10/19 11:41:05;;;;;;;6.32;2.20;;;;;;;;;;5028900;28;20054;-56
2023/10/19 11:43:31;;;;;;;6.93;3.10;;;;;;;;;;5030952;28;20514;-56
2023/10/19 11:45:56;;;;;;;16.77;4.53;;;;;;;;;;5031191;28;20034;-56
2023/10/19 11:48:22;;;;;;;12.88;3.25;;;;;;;;;;5030824;28;20090;-56
2023/10/19 11:50:47;;;;;;;9.85;3.88;;;;;;;;;;5029212;28;20468;-56
2023/10/19 11:53:12;;;;;;;7.63;3.13;;;;;;;;;;5029405;28;20583;-56
2023/10/19 11:55:38;;;;;;;8.43;3.20;;;;;;;;;;5028726;28;21069;-56
2023/10/19 11:58:03;;;;;;;10.30;3.05;;;;;;;;;;5030682;28;20017;-56
2023/10/19 12:00:33;;;;;;;7.13;2.50;;;;;;;;;;5029499;28;20026;-56
2023/10/19 12:02:58;;;;;;;8.68;2.80;;;;;;;;;;5029885;28;20477;-56
2023/10/19 12:05:24;;;;;;;7.93;4.00;;;;;;;;;;5027749;28;20037;-56
2023/10/19 12:07:50;;;;;;;6.13;2.80;;;;;;;;;;5031470;28;20056;-56
2023/10/19 12:10:18;;;;;;;13.20;4.85;;;;;;;;;;5032942;28;20033;-56
2023/10/19 12:12:43;;;;;;;6.35;3.55;;;;;;;;;;5034360;28;20408;-56
2023/10/19 12:15:08;;;;;;;9.02;4.55;;;;;;;;;;5032941;28;20036;-56
2023/10/19 12:17:34;;;;;;;13.50;5.63;;;;;;;;;;5034039;28;20045;-56
2023/10/19 12:19:59;;;;;;;7.45;2.88;;;;;;;;;;5032765;28;20044;-56
2023/10/19 12:22:28;;;;;;;8.43;2.88;;;;;;;;;;5034700;28;20384;-56
2023/10/19 12:24:54;;;;;;;9.38;2.60;;;;;;;;;;5032181;28;20026;-56
2023/10/19 12:27:19;;;;;;;8.73;3.53;;;;;;;;;;5034229;28;20285;-56
2023/10/19 12:29:45;;;;;;;4.63;2.90;;;;;;;;;;5031063;28;20100;-56
2023/10/19 12:32:12;;;;;;;10.63;4.83;;;;;;;;;;5032030;28;20507;-56
2023/10/19 12:34:39;;;;;;;8.43;2.78;;;;;;;;;;5032294;28;20045;-56
2023/10/19 12:37:04;;;;;;;9.57;3.55;;;;;;;;;;5030629;28;20034;-56
2023/10/19 12:39:39;;;;;;;11.75;4.22;;;;;;;;;;5032239;28;20440;-56
2023/10/19 12:42:05;;;;;;;7.97;2.85;;;;;;;;;;5030726;28;20041;-56
2023/10/19 12:44:32;;;;;;;8.85;3.83;;;;;;;;;;5033644;28;20018;-56
2023/10/19 12:46:58;;;;;;;4.32;2.30;;;;;;;;;;5031737;28;20060;-56
2023/10/19 12:49:25;;;;;;;4.90;3.13;;;;;;;;;;5033798;28;20472;-57
2023/10/19 12:51:51;;;;;;;9.87;2.90;;;;;;;;;;5031996;28;20037;-56
2023/10/19 12:54:17;;;;;;;6.63;2.03;;;;;;;;;;5033638;28;20534;-56
2023/10/19 12:56:42;;;;;;;7.00;2.45;;;;;;;;;;5032176;28;20030;-56
2023/10/19 12:59:08;;;;;;;3.33;2.13;;;;;;;;;;5033408;28;20057;-56
2023/10/19 13:01:35;;;;;;;6.10;3.17;;;;;;;;;;5031060;28;20410;-56
2023/10/19 13:04:01;;;;;;;7.88;2.78;;;;;;;;;;5033612;28;20128;-56
2023/10/19 13:06:29;;;;;;;7.30;3.45;;;;;;;;;;5031914;28;20770;-56
2023/10/19 13:08:54;;;;;;;10.48;3.90;;;;;;;;;;5032876;28;20439;-56
2023/10/19 13:11:19;;;;;;;7.68;2.78;;;;;;;;;;5032060;28;20033;-56
2023/10/19 13:13:45;;;;;;;9.95;3.30;;;;;;;;;;5033597;28;20021;-56
2023/10/19 13:16:10;;;;;;;11.57;4.00;;;;;;;;;;5031346;28;20053;-56
2023/10/19 13:18:35;;;;;;;5.00;2.53;;;;;;;;;;5033297;28;20473;-56
2023/10/19 13:21:09;;;;;;;8.05;2.45;;;;;;;;;;5030774;28;20116;-56
2023/10/19 13:23:35;;;;;;;9.07;2.63;;;;;;;;;;5032705;28;20032;-56
2023/10/19 13:28:32;;;;;;;11.98;4.35;;;;;;;;;;5033112;28;20473;-56
2023/10/19 13:30:57;;;;;;;6.57;2.67;;;;;;;;;;5030739;28;20048;-56
2023/10/19 13:33:23;;;;;;;21.98;5.32;;;;;;;;;;5032910;28;20025;-56
2023/10/19 13:35:49;;;;;;;7.63;4.18;;;;;;;;;;5031051;28;20040;-57
2023/10/19 13:38:15;;;;;;;9.02;3.85;;;;;;;;;;5032166;28;20018;-57
2023/10/19 13:40:41;;;;;;;12.68;2.30;;;;;;;;;;5030793;28;20037;-57
2023/10/19 13:43:07;;;;;;;15.20;3.22;;;;;;;;;;5030927;28;20033;-57
2023/10/19 13:45:36;;;;;;;9.18;2.70;;;;;;;;;;5030650;28;20045;-56
2023/10/19 13:48:04;;;;;;;10.05;2.58;;;;;;;;;;5032324;28;20018;-57
2023/10/19 13:50:30;;;;;;;8.63;3.40;;;;;;;;;;5031037;28;20038;-57
2023/10/19 13:52:56;;;;;;;7.32;3.60;;;;;;;;;;5032095;28;20491;-56
2023/10/19 13:55:23;;;;;;;21.77;5.18;;;;;;;;;;5028124;28;20575;-57
2023/10/19 13:57:48;;;;;;;13.18;4.07;;;;;;;;;;5021910;28;20043;-57
2023/10/19 14:00:49;;;;;;;12.03;2.97;;;;;;;;;;5029911;28;20485;-57
2023/10/19 14:03:05;;;;;;;7.55;3.88;;;;;;;;;;5030754;28;20586;-56
2023/10/19 14:05:38;;;;;;;14.73;5.20;;;;;;;;;;5030065;28;20057;-57
2023/10/19 14:08:04;;;;;;;5.50;2.50;;;;;;;;;;5031422;28;20028;-56
2023/10/19 14:10:30;;;;;;;8.63;3.15;;;;;;;;;;5030699;28;20068;-57
2023/10/19 14:12:56;;;;;;;10.75;4.03;;;;;;;;;;5031786;28;20031;-56
2023/10/19 14:15:21;;;;;;;18.75;4.30;;;;;;;;;;5030137;28;20432;-57
2023/10/19 14:17:47;;;;;;;10.70;5.03;;;;;;;;;;5031827;28;20029;-57
2023/10/19 14:20:13;;;;;;;13.90;3.28;;;;;;;;;;5030786;28;20026;-56
2023/10/19 14:22:43;;;;;;;17.42;5.78;;;;;;;;;;5031806;28;20041;-56
2023/10/19 14:25:12;;;;;;;7.15;3.65;;;;;;;;;;5029622;28;20116;-56
2023/10/19 14:27:37;;;;;;;8.40;3.47;;;;;;;;;;5031657;28;20049;-56
2023/10/19 14:30:03;;;;;;;10.00;3.55;;;;;;;;;;5029528;28;20085;-57
2023/10/19 14:32:28;;;;;;;7.90;4.35;;;;;;;;;;5031901;28;20017;-57
2023/10/19 14:34:53;;;;;;;14.35;4.50;;;;;;;;;;5028868;28;20041;-56
2023/10/19 14:37:19;;;;;;;14.27;4.00;;;;;;;;;;5031487;28;20025;-57